sensor_id;sensor_type;location;lat;lon;timestamp;pressure;altitude;pressure_sealevel;temperature;humidity
13456;BME280;6800;50.940;6.940;2023-04-20T00:01:16;101237.31;;;16.47;28.47
13456;BME280;6800;50.940;6.940;2023-04-20T00:05:18;101229.50;;;16.58;28.11
13456;BME280;6800;50.940;6.940;2023-04-20T00:09:19;101235.41;;;17.31;27.23
13456;BME280;6800;50.940;6.940;2023-04-20T00:13:23;101231.47;;;17.36;26.57
13456;BME280;6800;50.940;6.940;2023-04-20T00:17:24;101221.56;;;17.16;27.06
13456;BME280;6800;50.940;6.940;2023-04-20T00:21:26;101205.41;;;17.21;26.97
13456;BME280;6800;50.940;6.940;2023-04-20T00:25:28;101208.78;;;16.04;28.30
13456;BME280;6800;50.940;6.940;2023-04-20T00:29:30;101198.94;;;15.57;28.73
13456;BME280;6800;50.940;6.940;2023-04-20T00:33:32;101186.47;;;17.15;26.97
13456;BME280;6800;50.940;6.940;2023-04-20T00:37:33;101184.81;;;16.91;27.49
13456;BME280;6800;50.940;6.940;2023-04-20T00:41:34;101171.59;;;16.80;27.34
13456;BME280;6800;50.940;6.940;2023-04-20T00:45:36;101170.09;;;16.65;28.27
13456;BME280;6800;50.940;6.940;2023-04-20T00:49:38;101163.28;;;16.62;27.85
13456;BME280;6800;50.940;6.940;2023-04-20T00:53:40;101161.19;;;16.55;27.54
13456;BME280;6800;50.940;6.940;2023-04-20T00:57:41;101156.91;;;16.99;27.35
13456;BME280;6800;50.940;6.940;2023-04-20T01:01:44;101138.56;;;16.98;27.10
13456;BME280;6800;50.940;6.940;2023-04-20T01:05:45;101142.19;;;16.73;27.71
13456;BME280;6800;50.940;6.940;2023-04-20T01:09:46;101130.41;;;16.55;27.74
13456;BME280;6800;50.940;6.940;2023-04-20T01:13:48;101141.63;;;17.71;26.65
13456;BME280;6800;50.940;6.940;2023-04-20T01:17:49;101133.41;;;17.07;27.82
13456;BME280;6800;50.940;6.940;2023-04-20T01:21:52;101142.19;;;16.73;28.43
13456;BME280;6800;50.940;6.940;2023-04-20T01:25:53;101128.59;;;16.79;28.42
13456;BME280;6800;50.940;6.940;2023-04-20T01:29:55;101122.28;;;16.34;29.69
13456;BME280;6800;50.940;6.940;2023-04-20T01:33:56;101116.84;;;16.94;28.71
13456;BME280;6800;50.940;6.940;2023-04-20T01:37:58;101118.63;;;16.83;28.95
13456;BME280;6800;50.940;6.940;2023-04-20T01:41:59;101112.28;;;16.85;28.83
13456;BME280;6800;50.940;6.940;2023-04-20T01:46:01;101109.31;;;17.01;29.54
13456;BME280;6800;50.940;6.940;2023-04-20T01:50:03;101111.44;;;14.91;32.47
13456;BME280;6800;50.940;6.940;2023-04-20T01:54:04;101108.94;;;15.52;31.63
13456;BME280;6800;50.940;6.940;2023-04-20T01:58:06;101103.44;;;17.97;28.51
13456;BME280;6800;50.940;6.940;2023-04-20T02:02:07;101103.16;;;16.20;30.90
13456;BME280;6800;50.940;6.940;2023-04-20T02:06:09;101105.28;;;16.15;31.25
13456;BME280;6800;50.940;6.940;2023-04-20T02:10:10;101100.22;;;16.94;29.59
13456;BME280;6800;50.940;6.940;2023-04-20T02:14:12;101093.47;;;15.97;32.01
13456;BME280;6800;50.940;6.940;2023-04-20T02:18:13;101081.28;;;15.47;32.51
13456;BME280;6800;50.940;6.940;2023-04-20T02:22:16;101070.56;;;16.45;31.32
13456;BME280;6800;50.940;6.940;2023-04-20T02:26:17;101063.34;;;15.65;32.43
13456;BME280;6800;50.940;6.940;2023-04-20T02:30:19;101053.78;;;15.87;32.15
13456;BME280;6800;50.940;6.940;2023-04-20T02:34:20;101052.84;;;16.81;30.74
13456;BME280;6800;50.940;6.940;2023-04-20T02:38:22;101037.16;;;17.57;29.79
13456;BME280;6800;50.940;6.940;2023-04-20T02:42:23;101042.84;;;16.28;32.27
13456;BME280;6800;50.940;6.940;2023-04-20T02:46:25;101029.09;;;18.02;29.47
13456;BME280;6800;50.940;6.940;2023-04-20T02:50:26;101018.44;;;18.24;28.97
13456;BME280;6800;50.940;6.940;2023-04-20T02:54:27;101015.66;;;18.25;28.19
13456;BME280;6800;50.940;6.940;2023-04-20T02:58:29;101022.69;;;18.47;27.50
13456;BME280;6800;50.940;6.940;2023-04-20T03:02:31;101012.91;;;18.47;27.67
13456;BME280;6800;50.940;6.940;2023-04-20T03:06:33;101016.91;;;18.42;27.50
13456;BME280;6800;50.940;6.940;2023-04-20T03:10:39;101004.53;;;18.42;27.07
13456;BME280;6800;50.940;6.940;2023-04-20T03:14:40;101006.88;;;18.25;26.66
13456;BME280;6800;50.940;6.940;2023-04-20T03:18:42;101010.97;;;18.49;26.44
13456;BME280;6800;50.940;6.940;2023-04-20T03:22:43;101010.56;;;18.13;27.17
13456;BME280;6800;50.940;6.940;2023-04-20T03:26:44;101006.84;;;18.15;26.54
13456;BME280;6800;50.940;6.940;2023-04-20T03:30:46;101009.94;;;17.12;28.28
13456;BME280;6800;50.940;6.940;2023-04-20T03:34:47;101000.66;;;16.63;27.69
13456;BME280;6800;50.940;6.940;2023-04-20T03:38:49;100996.47;;;17.27;27.44
13456;BME280;6800;50.940;6.940;2023-04-20T03:42:50;101002.97;;;16.56;28.01
13456;BME280;6800;50.940;6.940;2023-04-20T03:46:51;100998.06;;;17.07;27.15
13456;BME280;6800;50.940;6.940;2023-04-20T03:50:53;100984.44;;;17.67;26.24
13456;BME280;6800;50.940;6.940;2023-04-20T03:54:54;100981.84;;;17.56;27.08
13456;BME280;6800;50.940;6.940;2023-04-20T03:58:56;100976.97;;;17.72;26.63
13456;BME280;6800;50.940;6.940;2023-04-20T04:02:57;100974.16;;;17.42;27.45
13456;BME280;6800;50.940;6.940;2023-04-20T04:06:59;100976.19;;;17.38;27.92
13456;BME280;6800;50.940;6.940;2023-04-20T04:11:00;100981.28;;;17.73;27.41
13456;BME280;6800;50.940;6.940;2023-04-20T04:15:02;100976.78;;;17.42;27.44
13456;BME280;6800;50.940;6.940;2023-04-20T04:19:03;100979.50;;;17.73;27.14
13456;BME280;6800;50.940;6.940;2023-04-20T04:23:04;100974.66;;;17.13;27.61
13456;BME280;6800;50.940;6.940;2023-04-20T04:27:06;100972.59;;;17.50;27.91
13456;BME280;6800;50.940;6.940;2023-04-20T04:31:08;100975.59;;;16.00;30.49
13456;BME280;6800;50.940;6.940;2023-04-20T04:35:10;100976.00;;;15.59;31.36
13456;BME280;6800;50.940;6.940;2023-04-20T04:39:12;100974.34;;;16.28;31.05
13456;BME280;6800;50.940;6.940;2023-04-20T04:43:13;100967.75;;;14.79;34.56
13456;BME280;6800;50.940;6.940;2023-04-20T04:47:15;100975.00;;;15.49;34.26
13456;BME280;6800;50.940;6.940;2023-04-20T04:51:18;100966.31;;;15.84;33.04
13456;BME280;6800;50.940;6.940;2023-04-20T04:55:19;100972.66;;;16.62;32.06
13456;BME280;6800;50.940;6.940;2023-04-20T04:59:20;100967.59;;;16.59;32.89
13456;BME280;6800;50.940;6.940;2023-04-20T05:03:22;100962.00;;;16.96;32.73
13456;BME280;6800;50.940;6.940;2023-04-20T05:07:24;100965.91;;;17.24;33.38
13456;BME280;6800;50.940;6.940;2023-04-20T05:11:25;100970.34;;;15.40;37.62
13456;BME280;6800;50.940;6.940;2023-04-20T05:15:26;100971.97;;;15.67;37.83
13456;BME280;6800;50.940;6.940;2023-04-20T05:19:28;100970.91;;;15.45;42.50
13456;BME280;6800;50.940;6.940;2023-04-20T05:23:29;100971.69;;;16.52;37.90
13456;BME280;6800;50.940;6.940;2023-04-20T05:27:32;100974.19;;;16.18;37.83
13456;BME280;6800;50.940;6.940;2023-04-20T05:31:33;100976.56;;;15.03;39.76
13456;BME280;6800;50.940;6.940;2023-04-20T05:35:35;100969.69;;;16.31;37.32
13456;BME280;6800;50.940;6.940;2023-04-20T05:39:36;100971.63;;;15.47;39.23
13456;BME280;6800;50.940;6.940;2023-04-20T05:43:37;100968.88;;;16.42;37.62
13456;BME280;6800;50.940;6.940;2023-04-20T05:47:39;100965.69;;;16.72;36.92
13456;BME280;6800;50.940;6.940;2023-04-20T05:51:40;100965.91;;;15.17;39.49
13456;BME280;6800;50.940;6.940;2023-04-20T05:55:43;100966.84;;;16.00;38.13
13456;BME280;6800;50.940;6.940;2023-04-20T05:59:44;100968.06;;;17.30;35.51
13456;BME280;6800;50.940;6.940;2023-04-20T06:03:45;100959.03;;;17.33;35.45
13456;BME280;6800;50.940;6.940;2023-04-20T06:07:50;100956.75;;;17.50;35.37
13456;BME280;6800;50.940;6.940;2023-04-20T06:11:52;100958.84;;;16.69;37.22
13456;BME280;6800;50.940;6.940;2023-04-20T06:15:53;100966.06;;;14.65;40.99
13456;BME280;6800;50.940;6.940;2023-04-20T06:19:54;100966.56;;;15.44;40.25
13456;BME280;6800;50.940;6.940;2023-04-20T06:23:56;100965.13;;;14.66;42.22
13456;BME280;6800;50.940;6.940;2023-04-20T06:27:57;100965.00;;;14.93;42.25
13456;BME280;6800;50.940;6.940;2023-04-20T06:31:58;100956.16;;;14.19;44.48
13456;BME280;6800;50.940;6.940;2023-04-20T06:36:00;100957.28;;;16.10;41.80
13456;BME280;6800;50.940;6.940;2023-04-20T06:40:02;100954.66;;;16.10;41.76
13456;BME280;6800;50.940;6.940;2023-04-20T06:44:08;100951.94;;;16.22;41.67
13456;BME280;6800;50.940;6.940;2023-04-20T06:48:09;100961.28;;;16.15;43.39
13456;BME280;6800;50.940;6.940;2023-04-20T06:52:30;100950.13;;;17.02;41.53
13456;BME280;6800;50.940;6.940;2023-04-20T06:56:32;100951.41;;;16.06;43.08
13456;BME280;6800;50.940;6.940;2023-04-20T07:00:35;100955.19;;;16.26;43.02
13456;BME280;6800;50.940;6.940;2023-04-20T07:04:37;100947.53;;;15.88;44.68
13456;BME280;6800;50.940;6.940;2023-04-20T07:08:38;100947.69;;;14.40;47.07
13456;BME280;6800;50.940;6.940;2023-04-20T07:12:40;100950.47;;;15.49;44.98
13456;BME280;6800;50.940;6.940;2023-04-20T07:16:45;100952.13;;;14.40;48.74
13456;BME280;6800;50.940;6.940;2023-04-20T07:20:47;100947.78;;;15.61;45.92
13456;BME280;6800;50.940;6.940;2023-04-20T07:24:48;100947.19;;;16.38;45.30
13456;BME280;6800;50.940;6.940;2023-04-20T07:28:50;100953.16;;;16.29;46.14
13456;BME280;6800;50.940;6.940;2023-04-20T07:32:52;100948.41;;;16.46;45.71
13456;BME280;6800;50.940;6.940;2023-04-20T07:36:53;100939.63;;;15.05;47.87
13456;BME280;6800;50.940;6.940;2023-04-20T07:40:55;100947.91;;;16.40;45.36
13456;BME280;6800;50.940;6.940;2023-04-20T07:44:56;100938.72;;;16.90;44.33
13456;BME280;6800;50.940;6.940;2023-04-20T07:48:57;100939.00;;;15.14;47.46
13456;BME280;6800;50.940;6.940;2023-04-20T07:52:59;100937.06;;;16.89;43.41
13456;BME280;6800;50.940;6.940;2023-04-20T07:57:00;100937.78;;;16.91;43.96
13456;BME280;6800;50.940;6.940;2023-04-20T08:01:03;100943.88;;;14.95;48.08
13456;BME280;6800;50.940;6.940;2023-04-20T08:05:05;100932.00;;;15.96;44.60
13456;BME280;6800;50.940;6.940;2023-04-20T08:09:07;100933.28;;;15.91;46.25
13456;BME280;6800;50.940;6.940;2023-04-20T08:13:08;100916.63;;;17.13;43.74
13456;BME280;6800;50.940;6.940;2023-04-20T08:17:09;100927.00;;;16.72;44.30
13456;BME280;6800;50.940;6.940;2023-04-20T08:21:11;100932.84;;;15.97;44.99
13456;BME280;6800;50.940;6.940;2023-04-20T08:25:13;100932.63;;;16.79;42.92
13456;BME280;6800;50.940;6.940;2023-04-20T08:29:14;100924.25;;;16.06;44.81
13456;BME280;6800;50.940;6.940;2023-04-20T08:33:15;100914.03;;;16.91;42.67
13456;BME280;6800;50.940;6.940;2023-04-20T08:37:18;100910.50;;;17.24;41.43
13456;BME280;6800;50.940;6.940;2023-04-20T08:41:20;100909.97;;;16.87;41.24
13456;BME280;6800;50.940;6.940;2023-04-20T08:45:21;100919.56;;;15.98;44.27
13456;BME280;6800;50.940;6.940;2023-04-20T08:49:26;100918.03;;;15.72;43.41
13456;BME280;6800;50.940;6.940;2023-04-20T08:53:29;100904.78;;;16.41;41.10
13456;BME280;6800;50.940;6.940;2023-04-20T08:57:31;100910.44;;;16.37;41.78
13456;BME280;6800;50.940;6.940;2023-04-20T09:01:32;100890.53;;;16.88;40.51
13456;BME280;6800;50.940;6.940;2023-04-20T09:05:39;100901.06;;;17.10;40.50
13456;BME280;6800;50.940;6.940;2023-04-20T09:09:52;100897.66;;;17.94;38.66
13456;BME280;6800;50.940;6.940;2023-04-20T09:14:05;100884.06;;;18.49;37.65
13456;BME280;6800;50.940;6.940;2023-04-20T09:18:11;100890.16;;;18.20;36.88
13456;BME280;6800;50.940;6.940;2023-04-20T09:22:14;100890.84;;;17.17;40.70
13456;BME280;6800;50.940;6.940;2023-04-20T09:26:16;100901.09;;;17.53;38.87
13456;BME280;6800;50.940;6.940;2023-04-20T09:30:19;100891.16;;;17.98;38.98
13456;BME280;6800;50.940;6.940;2023-04-20T09:34:21;100885.84;;;18.69;38.05
13456;BME280;6800;50.940;6.940;2023-04-20T09:38:24;100901.56;;;16.93;42.03
13456;BME280;6800;50.940;6.940;2023-04-20T09:42:27;100893.91;;;18.17;41.83
13456;BME280;6800;50.940;6.940;2023-04-20T09:46:30;100897.09;;;18.41;39.87
13456;BME280;6800;50.940;6.940;2023-04-20T09:50:35;100897.16;;;16.83;43.75
13456;BME280;6800;50.940;6.940;2023-04-20T09:54:50;100910.94;;;15.61;46.41
13456;BME280;6800;50.940;6.940;2023-04-20T09:58:52;100911.84;;;17.61;43.04
13456;BME280;6800;50.940;6.940;2023-04-20T10:02:54;100904.47;;;17.76;41.88
13456;BME280;6800;50.940;6.940;2023-04-20T10:06:56;100896.81;;;17.93;41.64
13456;BME280;6800;50.940;6.940;2023-04-20T10:11:03;100889.00;;;17.92;40.69
13456;BME280;6800;50.940;6.940;2023-04-20T10:15:05;100883.22;;;19.86;38.87
13456;BME280;6800;50.940;6.940;2023-04-20T10:19:06;100874.00;;;19.99;36.31
13456;BME280;6800;50.940;6.940;2023-04-20T10:23:10;100879.56;;;19.10;39.50
13456;BME280;6800;50.940;6.940;2023-04-20T10:27:19;100872.00;;;20.11;35.43
13456;BME280;6800;50.940;6.940;2023-04-20T10:31:21;100866.13;;;20.17;36.21
13456;BME280;6800;50.940;6.940;2023-04-20T10:35:23;100865.91;;;20.84;35.55
13456;BME280;6800;50.940;6.940;2023-04-20T10:39:24;100862.13;;;20.86;35.04
13456;BME280;6800;50.940;6.940;2023-04-20T10:43:27;100851.41;;;21.58;33.74
13456;BME280;6800;50.940;6.940;2023-04-20T10:47:30;100862.97;;;20.23;34.39
13456;BME280;6800;50.940;6.940;2023-04-20T10:51:32;100850.25;;;20.81;35.98
13456;BME280;6800;50.940;6.940;2023-04-20T10:55:34;100854.63;;;20.72;34.58
13456;BME280;6800;50.940;6.940;2023-04-20T10:59:35;100858.19;;;20.90;35.30
13456;BME280;6800;50.940;6.940;2023-04-20T11:03:39;100857.41;;;19.30;36.54
13456;BME280;6800;50.940;6.940;2023-04-20T11:08:01;100855.34;;;19.63;36.70
13456;BME280;6800;50.940;6.940;2023-04-20T11:12:08;100841.72;;;20.60;33.35
13456;BME280;6800;50.940;6.940;2023-04-20T11:16:13;100851.25;;;20.53;33.01
13456;BME280;6800;50.940;6.940;2023-04-20T11:20:14;100841.94;;;20.76;33.24
13456;BME280;6800;50.940;6.940;2023-04-20T11:24:19;100833.28;;;21.97;30.31
13456;BME280;6800;50.940;6.940;2023-04-20T11:28:21;100837.69;;;21.89;30.03
13456;BME280;6800;50.940;6.940;2023-04-20T11:32:23;100832.75;;;22.19;29.99
13456;BME280;6800;50.940;6.940;2023-04-20T11:36:26;100831.22;;;22.84;29.06
13456;BME280;6800;50.940;6.940;2023-04-20T11:40:30;100823.38;;;22.67;29.27
13456;BME280;6800;50.940;6.940;2023-04-20T11:44:31;100822.38;;;21.83;29.96
13456;BME280;6800;50.940;6.940;2023-04-20T11:48:33;100844.47;;;19.85;33.17
13456;BME280;6800;50.940;6.940;2023-04-20T11:52:34;100843.53;;;20.13;32.35
13456;BME280;6800;50.940;6.940;2023-04-20T11:56:36;100833.03;;;20.67;32.82
13456;BME280;6800;50.940;6.940;2023-04-20T12:00:38;100827.31;;;23.93;28.25
13456;BME280;6800;50.940;6.940;2023-04-20T12:04:40;100804.75;;;25.28;27.65
13456;BME280;6800;50.940;6.940;2023-04-20T12:08:42;100805.84;;;22.56;28.37
13456;BME280;6800;50.940;6.940;2023-04-20T12:12:44;100822.34;;;23.42;27.09
13456;BME280;6800;50.940;6.940;2023-04-20T12:16:45;100824.94;;;21.31;27.97
13456;BME280;6800;50.940;6.940;2023-04-20T12:20:46;100813.81;;;22.56;27.64
13456;BME280;6800;50.940;6.940;2023-04-20T12:24:50;100820.94;;;21.70;29.03
13456;BME280;6800;50.940;6.940;2023-04-20T12:28:52;100816.84;;;22.27;27.77
13456;BME280;6800;50.940;6.940;2023-04-20T12:32:54;100820.16;;;21.78;28.20
13456;BME280;6800;50.940;6.940;2023-04-20T12:36:56;100818.94;;;22.99;27.30
13456;BME280;6800;50.940;6.940;2023-04-20T12:40:57;100832.19;;;21.82;28.00
13456;BME280;6800;50.940;6.940;2023-04-20T12:44:58;100810.94;;;22.41;27.65
13456;BME280;6800;50.940;6.940;2023-04-20T12:49:00;100821.31;;;21.75;28.45
13456;BME280;6800;50.940;6.940;2023-04-20T12:53:01;100813.44;;;22.09;27.93
13456;BME280;6800;50.940;6.940;2023-04-20T12:57:03;100802.81;;;22.17;27.80
13456;BME280;6800;50.940;6.940;2023-04-20T13:01:04;100799.72;;;21.78;27.75
13456;BME280;6800;50.940;6.940;2023-04-20T13:05:06;100805.63;;;21.82;27.52
13456;BME280;6800;50.940;6.940;2023-04-20T13:09:08;100800.94;;;21.41;27.66
13456;BME280;6800;50.940;6.940;2023-04-20T13:13:09;100782.16;;;22.45;26.64
13456;BME280;6800;50.940;6.940;2023-04-20T13:17:11;100781.31;;;22.03;27.29
13456;BME280;6800;50.940;6.940;2023-04-20T13:21:15;100777.78;;;22.78;26.21
13456;BME280;6800;50.940;6.940;2023-04-20T13:25:16;100775.84;;;22.88;26.81
13456;BME280;6800;50.940;6.940;2023-04-20T13:29:18;100763.31;;;22.64;26.08
13456;BME280;6800;50.940;6.940;2023-04-20T13:33:20;100756.50;;;21.94;26.12
13456;BME280;6800;50.940;6.940;2023-04-20T13:37:21;100765.44;;;20.07;28.99
13456;BME280;6800;50.940;6.940;2023-04-20T13:41:22;100761.50;;;21.28;27.15
13456;BME280;6800;50.940;6.940;2023-04-20T13:45:24;100763.28;;;20.30;28.43
13456;BME280;6800;50.940;6.940;2023-04-20T13:49:25;100753.88;;;19.62;29.97
13456;BME280;6800;50.940;6.940;2023-04-20T13:53:27;100749.69;;;21.05;28.39
13456;BME280;6800;50.940;6.940;2023-04-20T13:57:28;100748.75;;;21.32;27.18
13456;BME280;6800;50.940;6.940;2023-04-20T14:01:31;100743.47;;;21.14;28.17
13456;BME280;6800;50.940;6.940;2023-04-20T14:05:33;100743.22;;;20.90;27.74
13456;BME280;6800;50.940;6.940;2023-04-20T14:09:34;100745.00;;;21.42;25.48
13456;BME280;6800;50.940;6.940;2023-04-20T14:13:36;100733.72;;;22.91;24.21
13456;BME280;6800;50.940;6.940;2023-04-20T14:17:38;100727.31;;;22.10;24.60
13456;BME280;6800;50.940;6.940;2023-04-20T14:21:40;100738.75;;;20.90;26.41
13456;BME280;6800;50.940;6.940;2023-04-20T14:25:44;100742.41;;;20.45;27.40
13456;BME280;6800;50.940;6.940;2023-04-20T14:29:45;100722.44;;;21.98;25.65
13456;BME280;6800;50.940;6.940;2023-04-20T14:33:46;100726.72;;;20.34;27.63
13456;BME280;6800;50.940;6.940;2023-04-20T14:37:48;100733.06;;;20.13;27.98
13456;BME280;6800;50.940;6.940;2023-04-20T14:41:49;100721.56;;;19.95;29.53
13456;BME280;6800;50.940;6.940;2023-04-20T14:45:51;100721.22;;;22.18;25.06
13456;BME280;6800;50.940;6.940;2023-04-20T14:49:53;100718.50;;;20.72;27.18
13456;BME280;6800;50.940;6.940;2023-04-20T14:53:55;100716.84;;;19.05;28.84
13456;BME280;6800;50.940;6.940;2023-04-20T14:57:56;100726.81;;;19.68;28.54
13456;BME280;6800;50.940;6.940;2023-04-20T15:01:58;100717.06;;;20.77;26.67
13456;BME280;6800;50.940;6.940;2023-04-20T15:06:03;100727.44;;;19.53;28.61
13456;BME280;6800;50.940;6.940;2023-04-20T15:10:05;100716.56;;;19.17;28.36
13456;BME280;6800;50.940;6.940;2023-04-20T15:14:30;100705.41;;;19.52;27.86
13456;BME280;6800;50.940;6.940;2023-04-20T15:18:32;100705.38;;;20.26;27.02
13456;BME280;6800;50.940;6.940;2023-04-20T15:22:33;100683.22;;;21.92;24.89
13456;BME280;6800;50.940;6.940;2023-04-20T15:26:35;100695.13;;;21.11;25.75
13456;BME280;6800;50.940;6.940;2023-04-20T15:30:36;100686.66;;;21.07;26.35
13456;BME280;6800;50.940;6.940;2023-04-20T15:34:38;100682.84;;;20.92;26.87
13456;BME280;6800;50.940;6.940;2023-04-20T15:38:39;100680.78;;;19.13;29.01
13456;BME280;6800;50.940;6.940;2023-04-20T15:42:41;100682.66;;;21.03;26.34
13456;BME280;6800;50.940;6.940;2023-04-20T15:46:43;100672.84;;;20.06;27.77
13456;BME280;6800;50.940;6.940;2023-04-20T15:50:51;100682.41;;;20.44;27.05
13456;BME280;6800;50.940;6.940;2023-04-20T15:54:53;100678.00;;;19.98;27.21
13456;BME280;6800;50.940;6.940;2023-04-20T15:58:54;100676.22;;;19.98;26.88
13456;BME280;6800;50.940;6.940;2023-04-20T16:02:55;100684.94;;;19.81;27.10
13456;BME280;6800;50.940;6.940;2023-04-20T16:06:57;100681.41;;;20.17;27.07
13456;BME280;6800;50.940;6.940;2023-04-20T16:10:59;100686.63;;;19.36;27.62
13456;BME280;6800;50.940;6.940;2023-04-20T16:15:00;100688.72;;;20.78;26.21
13456;BME280;6800;50.940;6.940;2023-04-20T16:19:02;100680.88;;;19.87;27.13
13456;BME280;6800;50.940;6.940;2023-04-20T16:23:03;100677.28;;;19.41;27.74
13456;BME280;6800;50.940;6.940;2023-04-20T16:27:05;100670.53;;;21.26;25.29
13456;BME280;6800;50.940;6.940;2023-04-20T16:31:06;100664.56;;;20.89;25.70
13456;BME280;6800;50.940;6.940;2023-04-20T16:35:08;100679.38;;;20.74;25.72
13456;BME280;6800;50.940;6.940;2023-04-20T16:39:10;100673.47;;;21.74;24.86
13456;BME280;6800;50.940;6.940;2023-04-20T16:43:11;100683.94;;;22.10;24.25
13456;BME280;6800;50.940;6.940;2023-04-20T16:47:13;100676.47;;;21.20;24.85
13456;BME280;6800;50.940;6.940;2023-04-20T16:51:14;100695.22;;;21.01;25.99
13456;BME280;6800;50.940;6.940;2023-04-20T16:55:16;100706.22;;;21.06;26.57
13456;BME280;6800;50.940;6.940;2023-04-20T16:59:17;100702.63;;;21.58;25.59
13456;BME280;6800;50.940;6.940;2023-04-20T17:03:19;100717.97;;;21.47;26.62
13456;BME280;6800;50.940;6.940;2023-04-20T17:07:21;100710.19;;;21.28;27.25
13456;BME280;6800;50.940;6.940;2023-04-20T17:11:22;100720.94;;;21.69;27.42
13456;BME280;6800;50.940;6.940;2023-04-20T17:15:24;100736.03;;;21.18;28.15
13456;BME280;6800;50.940;6.940;2023-04-20T17:19:26;100740.63;;;20.80;29.30
13456;BME280;6800;50.940;6.940;2023-04-20T17:23:27;100737.16;;;20.80;29.24
13456;BME280;6800;50.940;6.940;2023-04-20T17:27:29;100750.44;;;20.26;30.70
13456;BME280;6800;50.940;6.940;2023-04-20T17:31:30;100761.53;;;20.66;30.74
13456;BME280;6800;50.940;6.940;2023-04-20T17:35:33;100762.38;;;20.12;32.00
13456;BME280;6800;50.940;6.940;2023-04-20T17:39:38;100757.44;;;20.17;31.12
13456;BME280;6800;50.940;6.940;2023-04-20T17:43:39;100767.78;;;20.47;31.06
13456;BME280;6800;50.940;6.940;2023-04-20T17:47:41;100775.38;;;19.50;33.45
13456;BME280;6800;50.940;6.940;2023-04-20T17:51:42;100784.28;;;19.58;33.44
13456;BME280;6800;50.940;6.940;2023-04-20T17:55:44;100790.56;;;20.03;32.86
13456;BME280;6800;50.940;6.940;2023-04-20T17:59:45;100795.38;;;18.66;37.81
13456;BME280;6800;50.940;6.940;2023-04-20T18:03:49;100800.88;;;17.93;38.43
13456;BME280;6800;50.940;6.940;2023-04-20T18:07:51;100811.91;;;17.98;38.62
13456;BME280;6800;50.940;6.940;2023-04-20T18:11:53;100798.00;;;17.96;38.18
13456;BME280;6800;50.940;6.940;2023-04-20T18:15:54;100795.69;;;17.82;37.77
13456;BME280;6800;50.940;6.940;2023-04-20T18:19:56;100792.28;;;18.61;36.55
13456;BME280;6800;50.940;6.940;2023-04-20T18:23:57;100806.06;;;18.55;36.57
13456;BME280;6800;50.940;6.940;2023-04-20T18:27:59;100807.25;;;19.10;35.74
13456;BME280;6800;50.940;6.940;2023-04-20T18:32:00;100796.94;;;19.26;35.56
13456;BME280;6800;50.940;6.940;2023-04-20T18:36:02;100795.63;;;18.03;38.16
13456;BME280;6800;50.940;6.940;2023-04-20T18:40:04;100791.63;;;18.38;37.52
13456;BME280;6800;50.940;6.940;2023-04-20T18:44:06;100797.34;;;19.02;36.85
13456;BME280;6800;50.940;6.940;2023-04-20T18:48:07;100793.16;;;17.07;41.09
13456;BME280;6800;50.940;6.940;2023-04-20T18:52:09;100802.13;;;17.16;41.00
13456;BME280;6800;50.940;6.940;2023-04-20T18:56:11;100805.38;;;18.32;38.48
13456;BME280;6800;50.940;6.940;2023-04-20T19:00:13;100800.97;;;18.82;37.69
13456;BME280;6800;50.940;6.940;2023-04-20T19:04:14;100807.22;;;17.29;40.52
13456;BME280;6800;50.940;6.940;2023-04-20T19:08:16;100806.94;;;18.84;37.53
13456;BME280;6800;50.940;6.940;2023-04-20T19:12:17;100804.94;;;18.27;38.60
13456;BME280;6800;50.940;6.940;2023-04-20T19:16:19;100793.03;;;18.92;37.94
13456;BME280;6800;50.940;6.940;2023-04-20T19:20:22;100785.22;;;18.90;37.17
13456;BME280;6800;50.940;6.940;2023-04-20T19:24:24;100786.00;;;18.22;37.86
13456;BME280;6800;50.940;6.940;2023-04-20T19:28:25;100774.56;;;18.12;38.60
13456;BME280;6800;50.940;6.940;2023-04-20T19:32:28;100789.63;;;17.18;40.48
13456;BME280;6800;50.940;6.940;2023-04-20T19:36:30;100768.25;;;18.34;38.00
13456;BME280;6800;50.940;6.940;2023-04-20T19:40:32;100777.47;;;17.79;39.76
13456;BME280;6800;50.940;6.940;2023-04-20T19:44:33;100771.88;;;16.46;43.00
13456;BME280;6800;50.940;6.940;2023-04-20T19:48:36;100758.22;;;18.28;40.07
13456;BME280;6800;50.940;6.940;2023-04-20T19:52:37;100745.47;;;17.72;41.15
13456;BME280;6800;50.940;6.940;2023-04-20T19:56:39;100750.34;;;18.07;39.94
13456;BME280;6800;50.940;6.940;2023-04-20T20:00:40;100748.09;;;18.03;39.84
13456;BME280;6800;50.940;6.940;2023-04-20T20:04:41;100748.06;;;17.10;42.26
13456;BME280;6800;50.940;6.940;2023-04-20T20:08:44;100752.16;;;18.07;40.09
13456;BME280;6800;50.940;6.940;2023-04-20T20:12:46;100756.84;;;17.73;40.99
13456;BME280;6800;50.940;6.940;2023-04-20T20:16:48;100764.19;;;17.69;42.93
13456;BME280;6800;50.940;6.940;2023-04-20T20:20:50;100751.81;;;18.70;39.79
13456;BME280;6800;50.940;6.940;2023-04-20T20:24:53;100764.53;;;17.55;41.92
13456;BME280;6800;50.940;6.940;2023-04-20T20:28:54;100765.25;;;18.18;41.87
13456;BME280;6800;50.940;6.940;2023-04-20T20:32:56;100762.13;;;17.93;43.00
13456;BME280;6800;50.940;6.940;2023-04-20T20:37:01;100780.88;;;18.30;41.66
13456;BME280;6800;50.940;6.940;2023-04-20T20:41:04;100790.94;;;18.06;43.49
13456;BME280;6800;50.940;6.940;2023-04-20T20:45:10;100788.56;;;18.03;43.93
13456;BME280;6800;50.940;6.940;2023-04-20T20:49:12;100795.16;;;17.88;44.52
13456;BME280;6800;50.940;6.940;2023-04-20T20:53:13;100813.00;;;17.23;46.25
13456;BME280;6800;50.940;6.940;2023-04-20T20:57:17;100802.44;;;17.23;45.78
13456;BME280;6800;50.940;6.940;2023-04-20T21:01:19;100786.53;;;18.16;45.20
13456;BME280;6800;50.940;6.940;2023-04-20T21:05:21;100789.47;;;17.31;47.03
13456;BME280;6800;50.940;6.940;2023-04-20T21:09:23;100778.97;;;18.02;46.12
13456;BME280;6800;50.940;6.940;2023-04-20T21:13:25;100775.34;;;17.52;47.38
13456;BME280;6800;50.940;6.940;2023-04-20T21:17:26;100770.78;;;16.59;49.82
13456;BME280;6800;50.940;6.940;2023-04-20T21:21:28;100773.75;;;17.29;48.28